createdAt,value
2022-10-30T00:07:17.833Z,100.00
2022-10-30T00:17:20.296Z,100.00
2022-10-30T00:27:22.799Z,100.00
2022-10-30T00:37:25.421Z,100.00
2022-10-30T00:47:38.374Z,100.00
2022-10-30T00:57:43.113Z,100.00
2022-10-30T01:07:45.415Z,100.00
2022-10-30T01:18:03.534Z,100.00
2022-10-30T01:28:27.324Z,100.00
2022-10-30T01:38:36.484Z,100.00
2022-10-30T01:48:59.439Z,100.00
2022-10-30T01:59:13.003Z,100.00
2022-10-30T02:09:16.907Z,100.00
2022-10-30T02:19:19.454Z,100.00
2022-10-30T02:29:22.181Z,100.00
2022-10-30T02:39:24.503Z,100.00
2022-10-30T02:49:26.804Z,100.00
2022-10-30T02:59:30.384Z,100.00
2022-10-30T03:09:32.807Z,100.00
2022-10-30T03:19:35.965Z,100.00
2022-10-30T03:29:38.278Z,100.00
2022-10-30T03:39:40.522Z,100.00
2022-10-30T03:49:42.877Z,100.00
2022-10-30T03:59:45.338Z,100.00
2022-10-30T04:09:47.693Z,100.00
2022-10-30T04:19:49.849Z,100.00
2022-10-30T04:29:53.007Z,100.00
2022-10-30T04:39:55.203Z,100.00
2022-10-30T04:49:57.516Z,100.00
2022-10-30T04:59:59.742Z,100.00
2022-10-30T05:10:01.970Z,100.00
2022-10-30T05:20:05.350Z,100.00
2022-10-30T05:30:08.337Z,100.00
2022-10-30T05:40:11.222Z,100.00
2022-10-30T05:50:13.451Z,100.00
2022-10-30T06:00:16.490Z,100.00
2022-10-30T06:10:18.795Z,100.00
2022-10-30T06:20:23.880Z,100.00
2022-10-30T06:30:27.501Z,100.00
2022-10-30T06:40:30.368Z,100.00
2022-10-30T06:50:32.828Z,100.00
2022-10-30T07:00:35.390Z,100.00
2022-10-30T07:10:37.958Z,100.00
2022-10-30T07:20:40.460Z,100.00
2022-10-30T07:30:42.862Z,100.00
2022-10-30T07:40:45.344Z,100.00
2022-10-30T07:50:47.691Z,100.00
2022-10-30T08:00:50.389Z,100.00
2022-10-30T08:10:53.232Z,100.00
2022-10-30T08:20:55.754Z,100.00
2022-10-30T08:30:59.711Z,100.00
2022-10-30T08:41:02.851Z,100.00
2022-10-30T08:51:07.394Z,100.00
2022-10-30T09:01:10.470Z,100.00
2022-10-30T09:11:13.119Z,100.00
2022-10-30T09:21:15.850Z,100.00
2022-10-30T09:31:18.562Z,100.00
2022-10-30T09:41:39.163Z,100.00
2022-10-30T09:52:12.430Z,100.00
2022-10-30T10:02:33.617Z,100.00
2022-10-30T10:12:44.308Z,100.00
2022-10-30T10:22:51.418Z,100.00
2022-10-30T10:33:01.731Z,100.00
2022-10-30T10:43:12.732Z,100.00
2022-10-30T10:53:40.444Z,98.09
2022-10-30T11:04:04.645Z,94.86
2022-10-30T11:14:19.566Z,95.62
2022-10-30T11:24:31.285Z,93.86
2022-10-30T11:34:38.422Z,95.03
2022-10-30T11:44:51.970Z,89.73
2022-10-30T11:55:02.195Z,86.06
2022-10-30T12:05:24.968Z,84.80
2022-10-30T12:15:28.634Z,85.76
2022-10-30T12:25:32.796Z,87.38
2022-10-30T12:35:45.519Z,87.05
2022-10-30T12:45:51.642Z,87.74
2022-10-30T12:56:05.861Z,84.81
2022-10-30T13:06:17.895Z,86.80
2022-10-30T13:16:31.086Z,84.66
2022-10-30T13:26:45.116Z,82.57
2022-10-30T13:37:01.437Z,83.61
2022-10-30T13:47:19.023Z,83.58
2022-10-30T13:57:40.139Z,84.76
2022-10-30T14:08:06.039Z,84.80
2022-10-30T14:18:14.788Z,85.51
2022-10-30T14:28:23.386Z,87.76
2022-10-30T14:38:27.882Z,90.17
2022-10-30T14:49:12.025Z,92.19
2022-10-30T14:59:14.528Z,94.06
2022-10-30T15:09:32.373Z,95.07
2022-10-30T15:19:36.040Z,97.16
2022-10-30T15:29:40.196Z,100.00
2022-10-30T15:39:42.817Z,100.00
2022-10-30T15:49:57.556Z,100.00
2022-10-30T16:00:06.415Z,100.00
2022-10-30T16:10:15.439Z,100.00
2022-10-30T16:20:18.139Z,100.00
2022-10-30T16:30:20.777Z,100.00
2022-10-30T16:40:29.353Z,100.00
2022-10-30T16:50:36.712Z,100.00
2022-10-30T17:00:42.305Z,100.00
2022-10-30T17:11:01.164Z,100.00
2022-10-30T17:21:16.444Z,100.00
2022-10-30T17:31:19.139Z,100.00
2022-10-30T17:41:22.037Z,100.00
2022-10-30T17:51:24.590Z,100.00
2022-10-30T18:01:27.718Z,100.00
2022-10-30T18:11:30.398Z,100.00
2022-10-30T18:21:33.196Z,100.00
2022-10-30T18:31:35.964Z,100.00
2022-10-30T18:41:42.529Z,100.00
2022-10-30T18:51:45.120Z,100.00
2022-10-30T19:01:47.847Z,100.00
2022-10-30T19:11:50.452Z,100.00
2022-10-30T19:21:53.296Z,100.00
2022-10-30T19:31:55.893Z,100.00
2022-10-30T19:41:58.373Z,100.00
2022-10-30T19:52:01.053Z,100.00
2022-10-30T20:02:03.584Z,100.00
2022-10-30T20:12:07.398Z,100.00
2022-10-30T20:22:13.952Z,100.00
2022-10-30T20:32:16.748Z,100.00
2022-10-30T20:42:22.807Z,100.00
2022-10-30T20:52:25.358Z,100.00
2022-10-30T21:02:28.789Z,100.00
2022-10-30T21:12:31.171Z,100.00
2022-10-30T21:22:33.630Z,100.00
2022-10-30T21:32:36.068Z,100.00
2022-10-30T21:42:38.438Z,100.00
2022-10-30T21:52:41.305Z,100.00
2022-10-30T22:02:43.709Z,100.00
2022-10-30T22:12:46.266Z,100.00
2022-10-30T22:22:49.173Z,100.00
2022-10-30T22:32:52.009Z,100.00
2022-10-30T22:42:54.394Z,100.00
2022-10-30T22:52:59.614Z,100.00
2022-10-30T23:03:03.691Z,100.00
2022-10-30T23:13:07.413Z,100.00
2022-10-30T23:23:10.333Z,100.00
2022-10-30T23:33:13.741Z,100.00
2022-10-30T23:43:16.852Z,100.00
2022-10-30T23:53:19.726Z,100.00
